Time;durP1;ratioP1;P1;durP2;ratioP2;P2;SDS_P1;SDS_P2;PMS_P1;PMS_P2;Temp;Humidity;BMP_temperature;BMP_pressure;BME280_temperature;BME280_humidity;BME280_pressure;Samples;Min_cycle;Max_cycle;Signal;HPM_P1;HPM_P2
2023/07/12 00:00:29;;;;;;;122.47;117.25;;;18.10;99.90;;;;;;5102777;28;20084;-73
2023/07/12 00:02:58;;;;;;;83.85;79.50;;;18.10;99.90;;;;;;5103620;28;20043;-73
2023/07/12 00:05:28;;;;;;;71.90;68.43;;;18.00;99.90;;;;;;5091649;28;20043;-73
2023/07/12 00:07:54;;;;;;;68.55;64.97;;;17.80;99.90;;;;;;5105614;28;20046;-73
2023/07/12 00:10:26;;;;;;;82.53;78.55;;;17.80;99.90;;;;;;5106495;28;20085;-73
2023/07/12 00:12:53;;;;;;;67.15;63.38;;;17.80;99.90;;;;;;5091172;28;20555;-72
2023/07/12 00:15:25;;;;;;;81.07;77.00;;;17.90;99.90;;;;;;5108629;27;20039;-73
2023/07/12 00:17:52;;;;;;;81.32;77.32;;;17.90;99.90;;;;;;5105153;28;20038;-73
2023/07/12 00:20:22;;;;;;;102.13;97.38;;;18.00;99.90;;;;;;5104556;28;20115;-73
2023/07/12 00:22:50;;;;;;;98.00;93.30;;;18.00;99.90;;;;;;5104856;28;20028;-73
2023/07/12 00:25:15;;;;;;;97.18;92.05;;;18.00;99.90;;;;;;5092356;28;20128;-73
2023/07/12 00:27:41;;;;;;;75.80;71.15;;;18.00;99.90;;;;;;5108015;28;20107;-72
2023/07/12 00:30:21;;;;;;;86.40;82.03;;;18.00;99.90;;;;;;5100943;28;20044;-73
2023/07/12 00:32:52;;;;;;;69.13;65.00;;;18.00;99.90;;;;;;5103273;28;20029;-73
2023/07/12 00:35:24;;;;;;;64.72;61.45;;;17.80;99.90;;;;;;5104803;28;20028;-73
2023/07/12 00:37:55;;;;;;;63.55;60.42;;;18.00;99.90;;;;;;5107846;28;20044;-72
2023/07/12 00:40:46;;;;;;;70.32;66.03;;;17.90;99.90;;;;;;5109783;27;20016;-73
2023/07/12 00:43:18;;;;;;;71.05;67.45;;;17.70;99.90;;;;;;5107030;28;20027;-73
2023/07/12 00:45:46;;;;;;;75.47;72.03;;;17.90;99.90;;;;;;5106742;28;20617;-73
2023/07/12 00:48:13;;;;;;;66.25;62.65;;;17.90;99.90;;;;;;5105884;28;20055;-73
2023/07/12 00:50:40;;;;;;;64.05;60.85;;;17.90;99.90;;;;;;5110228;28;20031;-73
2023/07/12 00:53:12;;;;;;;71.45;68.13;;;17.80;99.90;;;;;;5109690;28;21522;-73
2023/07/12 00:55:53;;;;;;;69.35;65.63;;;17.90;99.90;;;;;;5091675;28;20114;-73
2023/07/12 00:58:19;;;;;;;70.88;66.55;;;17.90;99.90;;;;;;5090447;28;20031;-73
2023/07/12 01:00:45;;;;;;;64.13;60.75;;;18.00;99.90;;;;;;5108312;27;20092;-73
2023/07/12 01:03:13;;;;;;;66.93;63.33;;;18.10;99.90;;;;;;5106888;27;20043;-74
2023/07/12 01:05:44;;;;;;;70.88;67.35;;;20.00;99.90;;;;;;5110540;28;20071;-73
2023/07/12 01:08:11;;;;;;;152.38;145.18;;;19.70;99.90;;;;;;5110016;28;20028;-74
2023/07/12 01:10:37;;;;;;;113.40;108.20;;;19.80;99.90;;;;;;5107334;28;20431;-73
2023/07/12 01:13:05;;;;;;;203.55;194.85;;;19.60;99.90;;;;;;5105679;28;20032;-74
2023/07/12 01:15:32;;;;;;;125.75;119.28;;;20.00;99.90;;;;;;5102621;28;20516;-74
2023/07/12 01:17:58;;;;;;;110.53;105.30;;;19.90;99.90;;;;;;5087431;28;20038;-74
2023/07/12 01:20:25;;;;;;;149.93;143.25;;;19.90;99.90;;;;;;5106259;28;20103;-74
2023/07/12 01:22:52;;;;;;;250.18;238.90;;;19.90;99.90;;;;;;5089047;28;20043;-73
2023/07/12 01:25:38;;;;;;;165.60;158.60;;;20.20;99.90;;;;;;5107510;28;20081;-74
2023/07/12 01:28:04;;;;;;;139.13;133.10;;;20.10;99.90;;;;;;5108417;28;20023;-74
2023/07/12 01:30:31;;;;;;;139.57;133.70;;;19.90;99.90;;;;;;5108753;28;20026;-73
2023/07/12 01:32:56;;;;;;;102.35;97.20;;;20.00;99.90;;;;;;5107791;28;20027;-73
2023/07/12 01:35:22;;;;;;;135.57;129.88;;;20.00;99.90;;;;;;5108096;28;20374;-74
2023/07/12 01:37:48;;;;;;;59.10;56.17;;;19.80;99.90;;;;;;5104000;28;20044;-73
2023/07/12 01:40:13;;;;;;;90.35;85.85;;;19.90;99.90;;;;;;5106633;28;20026;-73
2023/07/12 01:42:39;;;;;;;89.72;85.55;;;19.80;99.90;;;;;;5109345;27;20032;-74
2023/07/12 01:45:05;;;;;;;66.93;63.60;;;19.80;99.90;;;;;;5084060;28;20036;-72
2023/07/12 01:47:32;;;;;;;80.75;76.65;;;19.80;99.90;;;;;;5105286;28;20450;-73
2023/07/12 01:49:58;;;;;;;85.45;81.47;;;19.90;99.90;;;;;;5108255;28;20088;-73
2023/07/12 01:52:23;;;;;;;63.10;59.65;;;19.80;99.90;;;;;;5103669;28;20118;-73
2023/07/12 01:54:49;;;;;;;86.43;82.03;;;19.80;99.90;;;;;;5088314;28;20111;-73
2023/07/12 01:57:15;;;;;;;105.60;100.60;;;19.70;99.90;;;;;;5107930;28;20039;-73
2023/07/12 01:59:41;;;;;;;154.38;147.70;;;19.70;99.90;;;;;;5105781;28;20473;-73
2023/07/12 02:02:08;;;;;;;124.72;119.32;;;19.70;99.90;;;;;;5108489;28;20040;-73
2023/07/12 02:04:34;;;;;;;121.28;116.38;;;19.80;99.90;;;;;;5107192;28;20042;-73
2023/07/12 02:06:59;;;;;;;156.48;149.95;;;19.60;99.90;;;;;;5108556;28;20456;-74
2023/07/12 02:09:39;;;;;;;101.15;96.68;;;19.80;99.90;;;;;;5108806;27;20027;-74
2023/07/12 02:12:05;;;;;;;81.28;76.35;;;19.60;99.90;;;;;;5101510;28;20034;-74
2023/07/12 02:14:30;;;;;;;72.07;68.50;;;19.50;99.90;;;;;;5106160;27;20031;-74
2023/07/12 02:16:56;;;;;;;86.90;82.55;;;19.40;99.90;;;;;;5104551;27;20393;-73
2023/07/12 02:19:22;;;;;;;86.05;81.70;;;19.50;99.90;;;;;;5105148;28;20024;-73
2023/07/12 02:21:47;;;;;;;93.28;88.43;;;19.40;99.90;;;;;;5104990;28;20115;-73
2023/07/12 02:24:13;;;;;;;99.28;94.88;;;19.20;99.90;;;;;;5104451;28;20034;-74
2023/07/12 02:26:41;;;;;;;78.05;74.30;;;19.20;99.90;;;;;;5106523;27;20031;-73
2023/07/12 02:29:07;;;;;;;61.33;58.03;;;19.10;99.90;;;;;;5105154;28;20513;-74
2023/07/12 02:31:33;;;;;;;87.45;82.80;;;19.10;99.90;;;;;;5106041;28;20118;-74
2023/07/12 02:33:59;;;;;;;69.07;65.00;;;19.00;99.90;;;;;;5106647;28;20028;-74
2023/07/12 02:36:25;;;;;;;45.60;43.45;;;18.90;99.90;;;;;;5103528;27;20051;-74
2023/07/12 02:38:51;;;;;;;47.65;44.63;;;18.70;99.90;;;;;;5106962;28;20433;-73
2023/07/12 02:41:17;;;;;;;60.22;57.22;;;18.70;99.90;;;;;;5104830;28;20031;-74
2023/07/12 02:43:47;;;;;;;63.55;60.40;;;18.50;99.90;;;;;;5104818;28;20047;-74
2023/07/12 02:46:13;;;;;;;56.42;53.50;;;18.40;99.90;;;;;;5106322;28;20044;-73
2023/07/12 02:48:39;;;;;;;51.67;49.22;;;18.30;99.90;;;;;;5107528;28;20028;-73
2023/07/12 02:51:04;;;;;;;72.45;69.03;;;18.20;99.90;;;;;;5102629;28;20714;-73
2023/07/12 02:53:33;;;;;;;72.07;68.45;;;18.00;99.90;;;;;;5107184;28;20063;-73
2023/07/12 02:55:58;;;;;;;65.80;62.08;;;18.00;99.90;;;;;;5109545;28;20035;-74
2023/07/12 02:58:24;;;;;;;40.65;38.08;;;17.70;99.90;;;;;;5104893;28;20901;-73
2023/07/12 03:00:58;;;;;;;61.65;58.60;;;17.50;99.90;;;;;;5091146;28;20063;-74
2023/07/12 03:03:24;;;;;;;59.72;56.75;;;17.30;99.90;;;;;;5109259;28;20502;-72
2023/07/12 03:05:49;;;;;;;62.95;59.75;;;17.30;99.90;;;;;;5105136;28;20037;-74
2023/07/12 03:08:15;;;;;;;47.92;45.42;;;17.20;99.90;;;;;;5108221;27;20039;-73
2023/07/12 03:10:41;;;;;;;60.53;57.63;;;17.00;99.90;;;;;;5108348;27;20039;-74
2023/07/12 03:13:07;;;;;;;67.22;63.95;;;17.10;99.90;;;;;;5108437;28;20027;-74
2023/07/12 03:15:37;;;;;;;49.40;47.05;;;16.90;99.90;;;;;;5107417;28;20040;-74
2023/07/12 03:18:03;;;;;;;50.15;47.45;;;17.00;99.90;;;;;;5102162;28;20030;-74
2023/07/12 03:20:28;;;;;;;44.88;42.38;;;17.00;99.90;;;;;;5105384;28;20036;-74
2023/07/12 03:22:54;;;;;;;41.40;39.35;;;16.90;99.90;;;;;;5107862;28;20036;-73
2023/07/12 03:25:20;;;;;;;43.58;40.88;;;16.90;99.90;;;;;;5107584;28;20409;-73
2023/07/12 03:27:48;;;;;;;41.95;39.72;;;16.90;99.90;;;;;;5105724;28;20030;-74
2023/07/12 03:30:13;;;;;;;48.70;45.88;;;16.70;99.90;;;;;;5100342;28;20102;-74
2023/07/12 03:32:39;;;;;;;43.45;41.22;;;16.70;99.90;;;;;;5091869;28;20762;-74
2023/07/12 03:35:05;;;;;;;44.63;41.67;;;16.70;99.90;;;;;;5105081;28;20096;-73
2023/07/12 03:37:30;;;;;;;45.38;42.70;;;16.60;99.90;;;;;;5105847;28;20043;-73
2023/07/12 03:39:56;;;;;;;45.20;42.80;;;16.60;99.90;;;;;;5108809;28;20503;-74
2023/07/12 03:42:22;;;;;;;38.78;36.83;;;16.60;99.90;;;;;;5103046;28;20044;-74
2023/07/12 03:44:47;;;;;;;44.63;41.92;;;16.60;99.90;;;;;;5107398;28;20031;-74
2023/07/12 03:47:13;;;;;;;43.42;40.97;;;16.70;99.90;;;;;;5104978;28;20024;-73
2023/07/12 03:49:38;;;;;;;42.50;40.45;;;16.70;99.90;;;;;;5104192;28;20393;-73
2023/07/12 03:52:04;;;;;;;47.80;45.15;;;16.70;99.90;;;;;;5106413;28;20024;-73
2023/07/12 03:54:30;;;;;;;37.70;35.60;;;16.70;99.90;;;;;;5109337;28;20043;-73
2023/07/12 03:56:56;;;;;;;50.85;47.85;;;16.70;99.90;;;;;;5104146;28;20483;-74
2023/07/12 03:59:21;;;;;;;48.92;46.13;;;16.70;99.90;;;;;;5105109;28;20082;-73
2023/07/12 04:01:47;;;;;;;39.17;37.13;;;16.70;99.90;;;;;;5097674;28;20398;-73
2023/07/12 04:04:12;;;;;;;38.85;36.58;;;16.70;99.90;;;;;;5082220;28;20504;-74
2023/07/12 04:06:38;;;;;;;36.00;34.22;;;16.70;99.90;;;;;;5102174;28;20024;-72
2023/07/12 04:09:04;;;;;;;39.17;36.63;;;16.70;99.90;;;;;;5105187;28;20024;-73
2023/07/12 04:11:32;;;;;;;38.40;36.17;;;16.70;99.90;;;;;;5105011;28;20058;-74
2023/07/12 04:14:02;;;;;;;39.30;37.00;;;16.70;99.90;;;;;;5103129;28;20019;-73
2023/07/12 04:16:29;;;;;;;37.00;34.95;;;16.80;99.90;;;;;;5101001;28;20039;-73
2023/07/12 04:18:54;;;;;;;37.30;35.30;;;17.00;99.90;;;;;;5104231;28;20571;-75
2023/07/12 04:21:21;;;;;;;38.35;36.17;;;17.10;99.90;;;;;;5104548;28;20032;-72
2023/07/12 04:23:47;;;;;;;38.67;36.22;;;17.10;99.90;;;;;;5107584;28;20577;-72
2023/07/12 04:26:14;;;;;;;37.60;35.38;;;17.20;99.90;;;;;;5106491;28;20164;-73
2023/07/12 04:28:42;;;;;;;55.40;51.55;;;17.20;99.90;;;;;;5102559;28;20023;-73
2023/07/12 04:31:10;;;;;;;50.00;46.85;;;18.90;99.90;;;;;;5106862;28;20092;-78
2023/07/12 04:33:36;;;;;;;55.72;53.05;;;19.10;99.90;;;;;;5085603;28;20028;-78
2023/07/12 04:36:07;;;;;;;57.33;54.08;;;19.10;99.90;;;;;;5098573;28;20787;-79
2023/07/12 04:38:33;;;;;;;70.65;66.75;;;18.80;99.90;;;;;;5088307;28;20509;-80
2023/07/12 04:40:59;;;;;;;48.92;45.90;;;19.00;99.90;;;;;;5102517;28;20059;-78
2023/07/12 04:43:25;;;;;;;136.00;130.20;;;19.30;99.90;;;;;;5101108;28;20489;-77
2023/07/12 04:45:52;;;;;;;100.20;95.38;;;19.30;99.90;;;;;;5083975;28;20395;-77
2023/07/12 04:48:18;;;;;;;110.78;105.97;;;19.20;99.90;;;;;;5104245;28;20024;-77
2023/07/12 04:50:44;;;;;;;115.35;110.47;;;19.10;99.90;;;;;;5101790;28;20031;-77
2023/07/12 04:53:12;;;;;;;63.05;59.58;;;19.40;99.90;;;;;;5108324;28;20516;-77
2023/07/12 04:55:38;;;;;;;82.50;78.80;;;19.10;99.90;;;;;;5103500;28;20035;-77
2023/07/12 04:58:03;;;;;;;87.90;83.20;;;19.20;99.90;;;;;;5110084;28;20032;-76
2023/07/12 05:00:30;;;;;;;87.40;82.68;;;19.10;99.90;;;;;;5092838;28;20054;-86
2023/07/12 05:02:56;;;;;;;62.35;58.08;;;19.50;99.90;;;;;;5108168;28;20036;-80
2023/07/12 05:05:23;;;;;;;83.47;79.25;;;18.50;99.90;;;;;;5107090;28;20032;-83
2023/07/12 05:07:49;;;;;;;59.95;56.85;;;18.60;99.90;;;;;;5080854;28;20104;-83
2023/07/12 05:10:17;;;;;;;88.22;82.50;;;18.50;99.90;;;;;;5117031;28;20038;-83
2023/07/12 05:12:43;;;;;;;47.90;45.22;;;18.10;99.90;;;;;;5095354;28;20016;-83
2023/07/12 05:15:10;;;;;;;50.45;47.95;;;18.00;99.90;;;;;;5111199;28;20031;-86
2023/07/12 05:17:37;;;;;;;77.88;74.18;;;18.30;99.90;;;;;;5103529;28;20035;-86
2023/07/12 05:20:05;;;;;;;118.88;113.82;;;18.30;99.90;;;;;;5107939;28;20038;-85
2023/07/12 05:22:30;;;;;;;113.18;107.97;;;18.50;99.90;;;;;;5109879;28;20488;-86
2023/07/12 05:24:58;;;;;;;113.95;108.70;;;18.60;99.90;;;;;;5108923;28;20028;-86
2023/07/12 05:27:24;;;;;;;152.27;145.52;;;18.50;99.90;;;;;;5108063;28;20042;-81
2023/07/12 05:29:50;;;;;;;137.55;131.43;;;18.60;99.90;;;;;;5104413;28;20028;-85
2023/07/12 05:32:15;;;;;;;136.30;130.02;;;18.60;99.90;;;;;;5091637;28;20028;-85
2023/07/12 05:34:42;;;;;;;91.32;86.82;;;18.30;99.90;;;;;;5074642;28;20070;-85
2023/07/12 05:37:13;;;;;;;141.25;134.43;;;18.40;99.90;;;;;;5104920;28;20402;-84
2023/07/12 05:39:39;;;;;;;104.75;99.72;;;18.50;99.90;;;;;;5106637;28;20076;-85
2023/07/12 05:42:05;;;;;;;64.03;60.45;;;18.70;99.90;;;;;;5104639;28;20056;-86
2023/07/12 05:44:31;;;;;;;141.25;134.68;;;18.70;99.90;;;;;;5086105;28;20108;-83
2023/07/12 05:46:57;;;;;;;80.45;76.47;;;18.80;99.90;;;;;;5102238;28;20032;-76
2023/07/12 05:49:23;;;;;;;111.28;105.75;;;18.80;99.90;;;;;;5110404;28;20043;-79
2023/07/12 05:51:48;;;;;;;84.28;80.07;;;18.80;99.90;;;;;;5109003;28;20085;-75
2023/07/12 05:54:15;;;;;;;82.43;78.15;;;18.80;99.90;;;;;;5103948;27;20125;-77
2023/07/12 05:56:40;;;;;;;73.65;69.63;;;18.70;99.90;;;;;;5107603;28;20036;-75
2023/07/12 05:59:06;;;;;;;121.63;115.85;;;18.80;99.90;;;;;;5102636;28;20094;-75
2023/07/12 06:01:32;;;;;;;140.55;134.23;;;18.80;99.90;;;;;;5105795;28;20031;-75
2023/07/12 06:03:57;;;;;;;146.65;139.93;;;19.00;99.90;;;;;;5104973;28;20435;-74
2023/07/12 06:06:23;;;;;;;91.45;86.60;;;19.30;99.90;;;;;;5104981;28;20028;-74
2023/07/12 06:08:49;;;;;;;77.07;73.10;;;19.20;99.90;;;;;;5108712;28;20027;-75
2023/07/12 06:11:15;;;;;;;98.07;93.43;;;19.20;99.90;;;;;;5104475;28;20058;-75
2023/07/12 06:13:40;;;;;;;124.72;119.20;;;19.30;99.90;;;;;;5108327;28;20058;-75
2023/07/12 06:16:06;;;;;;;96.82;92.47;;;19.30;99.90;;;;;;5105389;28;20112;-75
2023/07/12 06:18:32;;;;;;;107.20;101.88;;;19.30;99.90;;;;;;5090863;28;20035;-75
2023/07/12 06:21:00;;;;;;;114.65;109.55;;;19.40;99.90;;;;;;5109832;28;20041;-75
2023/07/12 06:23:29;;;;;;;61.28;57.83;;;19.50;99.90;;;;;;5111037;27;20035;-74
2023/07/12 06:25:59;;;;;;;87.15;81.57;;;19.40;99.90;;;;;;5105018;28;20027;-74
2023/07/12 06:28:25;;;;;;;46.53;43.33;;;19.30;99.90;;;;;;5102335;28;20396;-75
2023/07/12 06:30:51;;;;;;;135.55;129.40;;;19.10;99.90;;;;;;5109386;28;20024;-74
2023/07/12 06:33:17;;;;;;;76.68;72.65;;;19.20;99.90;;;;;;5091460;28;20019;-74
2023/07/12 06:35:43;;;;;;;47.70;44.70;;;19.00;99.90;;;;;;5098201;28;20394;-75
2023/07/12 06:38:09;;;;;;;42.88;40.00;;;18.80;99.90;;;;;;5108698;28;20053;-74
2023/07/12 06:40:35;;;;;;;50.60;47.53;;;18.70;99.90;;;;;;5109348;28;20485;-74
2023/07/12 06:43:00;;;;;;;40.80;38.30;;;18.70;99.90;;;;;;5089482;28;20554;-74
2023/07/12 06:45:26;;;;;;;43.60;40.58;;;18.60;99.90;;;;;;5108042;28;20053;-75
2023/07/12 06:47:52;;;;;;;78.50;75.07;;;18.60;99.90;;;;;;5106100;28;20103;-75
2023/07/12 06:50:17;;;;;;;40.20;37.90;;;18.80;99.90;;;;;;5105353;28;20228;-75
2023/07/12 06:52:43;;;;;;;38.58;36.15;;;18.80;99.90;;;;;;5091313;28;20028;-74
2023/07/12 06:55:09;;;;;;;39.92;37.58;;;18.70;99.90;;;;;;5106079;28;20547;-74
2023/07/12 06:57:35;;;;;;;39.38;37.25;;;18.80;99.90;;;;;;5107786;28;20027;-72
2023/07/12 07:00:10;;;;;;;46.70;44.03;;;18.90;99.90;;;;;;5108224;28;20039;-73
2023/07/12 07:02:36;;;;;;;51.90;48.65;;;18.60;99.90;;;;;;5090103;28;20038;-72
2023/07/12 07:05:02;;;;;;;44.65;42.38;;;18.60;99.90;;;;;;5108056;28;20023;-71
2023/07/12 07:07:28;;;;;;;72.35;68.18;;;18.50;99.90;;;;;;5107853;28;20408;-75
2023/07/12 07:09:54;;;;;;;53.53;49.30;;;18.40;99.90;;;;;;5110649;28;20411;-71
2023/07/12 07:12:20;;;;;;;49.08;46.38;;;18.50;99.90;;;;;;5109545;28;20473;-72
2023/07/12 07:14:45;;;;;;;45.20;42.50;;;18.40;99.90;;;;;;5109035;28;20038;-72
2023/07/12 07:17:11;;;;;;;41.38;38.83;;;18.40;99.90;;;;;;5107272;28;20059;-73
2023/07/12 07:19:37;;;;;;;48.20;45.60;;;18.60;99.90;;;;;;5107338;28;20066;-72
2023/07/12 07:22:03;;;;;;;56.20;53.30;;;18.60;99.90;;;;;;5106625;28;20399;-73
2023/07/12 07:24:29;;;;;;;47.22;43.83;;;18.70;99.90;;;;;;5105420;28;20031;-72
2023/07/12 07:26:55;;;;;;;39.35;36.67;;;18.70;99.90;;;;;;5106926;28;20059;-73
2023/07/12 07:29:21;;;;;;;43.95;41.28;;;18.70;99.90;;;;;;5104854;28;20039;-74
2023/07/12 07:31:47;;;;;;;40.75;38.60;;;18.90;99.90;;;;;;5088881;28;20031;-74
2023/07/12 07:34:14;;;;;;;39.65;37.63;;;18.80;99.90;;;;;;5105773;28;20085;-74
2023/07/12 07:36:40;;;;;;;42.90;40.63;;;19.10;99.90;;;;;;5107537;28;20051;-72
2023/07/12 07:39:06;;;;;;;40.72;38.08;;;19.30;99.90;;;;;;5102536;28;20105;-72
2023/07/12 07:41:32;;;;;;;59.08;55.58;;;19.50;99.90;;;;;;5101542;28;20040;-74
2023/07/12 07:43:57;;;;;;;38.10;36.05;;;19.40;99.90;;;;;;5099455;28;20109;-74
2023/07/12 07:46:23;;;;;;;39.85;37.72;;;19.60;99.90;;;;;;5103839;28;20043;-74
2023/07/12 07:48:49;;;;;;;38.85;36.95;;;19.80;99.90;;;;;;5104572;28;20390;-74
2023/07/12 07:51:15;;;;;;;37.95;35.75;;;19.70;99.90;;;;;;5088845;28;20054;-74
2023/07/12 07:53:41;;;;;;;41.85;39.78;;;19.90;99.90;;;;;;5101333;28;20363;-74
2023/07/12 07:56:07;;;;;;;32.65;30.45;;;19.90;99.90;;;;;;5104373;28;20513;-74
2023/07/12 07:58:33;;;;;;;35.10;33.10;;;20.00;99.90;;;;;;5103549;28;20111;-74
2023/07/12 08:00:59;;;;;;;30.48;28.85;;;20.20;99.90;;;;;;5106092;28;20161;-74
2023/07/12 08:03:25;;;;;;;36.28;34.47;;;20.30;99.90;;;;;;5086457;28;20039;-74
2023/07/12 08:05:51;;;;;;;31.70;30.10;;;20.50;99.90;;;;;;5104474;28;20119;-75
2023/07/12 08:08:17;;;;;;;37.83;36.03;;;20.70;99.90;;;;;;5105239;28;20510;-74
2023/07/12 08:10:43;;;;;;;34.05;32.47;;;21.20;99.90;;;;;;5106107;28;20386;-75
2023/07/12 08:13:09;;;;;;;36.95;34.20;;;21.20;99.90;;;;;;5106967;28;20063;-74
2023/07/12 08:15:35;;;;;;;30.40;28.10;;;21.60;99.90;;;;;;5071877;28;20068;-75
2023/07/12 08:18:01;;;;;;;48.70;46.25;;;21.80;96.20;;;;;;5103744;28;20020;-75
2023/07/12 08:20:27;;;;;;;20.55;19.13;;;21.80;96.10;;;;;;5089436;28;20028;-75
2023/07/12 08:22:54;;;;;;;29.17;26.92;;;22.00;94.40;;;;;;5101953;28;20020;-74
2023/07/12 08:25:19;;;;;;;35.28;33.22;;;21.90;93.80;;;;;;5105225;28;20039;-75
2023/07/12 08:27:46;;;;;;;23.98;22.33;;;22.00;93.00;;;;;;5090777;28;20040;-74
2023/07/12 08:30:13;;;;;;;28.48;26.65;;;22.10;93.20;;;;;;5104014;28;20022;-75
2023/07/12 08:32:39;;;;;;;30.00;27.92;;;22.20;92.30;;;;;;5107938;28;20032;-75
2023/07/12 08:35:06;;;;;;;31.92;29.42;;;22.40;92.30;;;;;;5114390;27;20027;-75
2023/07/12 08:37:32;;;;;;;53.20;50.35;;;22.80;91.90;;;;;;5108134;28;20050;-74
2023/07/12 08:39:58;;;;;;;22.73;21.23;;;22.80;92.10;;;;;;5108220;28;20039;-72
2023/07/12 08:42:38;;;;;;;29.17;27.25;;;22.90;90.10;;;;;;5090220;28;20031;-72
2023/07/12 08:45:25;;;;;;;21.55;20.10;;;23.00;89.70;;;;;;5103868;28;20027;-74
2023/07/12 08:47:57;;;;;;;39.13;36.00;;;23.80;89.20;;;;;;5107087;28;20167;-75
2023/07/12 08:50:23;;;;;;;31.83;29.77;;;23.50;86.00;;;;;;5090475;28;20118;-75
2023/07/12 08:52:49;;;;;;;20.15;18.92;;;23.30;88.60;;;;;;5105538;28;20032;-75
2023/07/12 08:55:20;;;;;;;25.90;24.02;;;23.40;85.60;;;;;;5106908;28;20111;-74
2023/07/12 08:58:03;;;;;;;21.70;20.23;;;23.10;84.00;;;;;;5110764;28;20035;-74
2023/07/12 09:00:32;;;;;;;20.17;18.10;;;23.80;85.20;;;;;;5109440;28;20031;-74
2023/07/12 09:02:59;;;;;;;22.13;20.33;;;23.90;85.20;;;;;;5110085;28;20111;-74
2023/07/12 09:05:25;;;;;;;21.25;19.20;;;23.90;84.20;;;;;;5113537;27;20077;-75
2023/07/12 09:08:04;;;;;;;21.52;19.90;;;24.30;83.00;;;;;;5103825;28;20421;-74
2023/07/12 09:10:33;;;;;;;21.83;20.15;;;24.50;81.30;;;;;;5107640;28;20047;-75
2023/07/12 09:13:00;;;;;;;24.17;22.35;;;24.30;81.80;;;;;;5107443;28;20024;-75
2023/07/12 09:15:36;;;;;;;24.30;22.48;;;24.80;79.00;;;;;;5110731;28;20050;-74
2023/07/12 09:18:07;;;;;;;28.25;26.50;;;25.00;78.40;;;;;;5110955;28;20027;-74
2023/07/12 09:20:37;;;;;;;22.02;20.35;;;24.40;77.10;;;;;;5088846;28;20138;-74
2023/07/12 09:23:03;;;;;;;20.80;19.42;;;24.60;80.10;;;;;;5110555;28;20469;-74
2023/07/12 09:25:35;;;;;;;24.05;22.15;;;25.00;77.40;;;;;;5109388;27;20114;-75
2023/07/12 09:28:01;;;;;;;21.42;19.45;;;25.10;75.70;;;;;;5106057;28;20394;-74
2023/07/12 09:30:29;;;;;;;21.92;20.52;;;24.90;75.30;;;;;;5106680;28;20038;-74
2023/07/12 09:32:56;;;;;;;20.63;19.10;;;25.00;77.40;;;;;;5095663;27;20050;-74
2023/07/12 09:35:24;;;;;;;22.48;20.83;;;25.00;74.30;;;;;;5091380;28;20516;-74
2023/07/12 09:37:57;;;;;;;23.10;21.58;;;25.20;74.10;;;;;;5109541;28;20044;-74
2023/07/12 09:40:23;;;;;;;22.70;20.88;;;25.30;75.30;;;;;;5089690;28;20023;-74
2023/07/12 09:42:55;;;;;;;23.63;21.63;;;25.50;71.90;;;;;;5110181;28;20077;-74
2023/07/12 09:45:21;;;;;;;23.50;21.90;;;25.50;73.70;;;;;;5090804;28;20027;-74
2023/07/12 09:48:31;;;;;;;20.25;18.60;;;25.80;73.10;;;;;;5105682;28;20420;-74
2023/07/12 09:51:14;;;;;;;19.83;17.75;;;25.90;71.20;;;;;;5061908;28;20033;-74
2023/07/12 09:53:50;;;;;;;18.88;17.10;;;26.00;70.60;;;;;;5106220;28;20488;-74
2023/07/12 09:56:46;;;;;;;19.45;17.65;;;26.10;71.50;;;;;;5103925;28;20028;-77
2023/07/12 09:59:19;;;;;;;19.58;18.23;;;26.40;70.20;;;;;;5083603;28;20087;-80
2023/07/12 10:02:00;;;;;;;17.45;16.25;;;26.40;68.80;;;;;;5111028;28;20051;-79
2023/07/12 10:04:35;;;;;;;20.10;18.45;;;26.00;68.10;;;;;;5102768;28;20048;-79
2023/07/12 10:07:09;;;;;;;19.73;17.80;;;26.40;70.30;;;;;;5106960;28;20028;-78
2023/07/12 10:09:37;;;;;;;18.35;16.92;;;26.80;67.80;;;;;;5106322;28;20027;-79
2023/07/12 10:12:13;;;;;;;19.35;17.95;;;26.90;66.50;;;;;;5105111;28;20024;-79
2023/07/12 10:14:42;;;;;;;20.63;18.95;;;26.70;66.40;;;;;;5105187;28;20055;-79
2023/07/12 10:17:24;;;;;;;23.35;21.85;;;26.80;68.00;;;;;;5103907;28;20075;-79
2023/07/12 10:19:53;;;;;;;19.45;17.67;;;26.70;66.00;;;;;;5106963;28;20085;-78
2023/07/12 10:22:33;;;;;;;19.88;18.48;;;27.00;64.40;;;;;;5105912;28;20020;-78
2023/07/12 10:25:01;;;;;;;19.42;18.02;;;27.00;64.60;;;;;;5107810;28;20381;-78
2023/07/12 10:27:31;;;;;;;20.05;18.55;;;27.50;62.90;;;;;;5106148;28;20019;-78
2023/07/12 10:30:09;;;;;;;19.15;17.60;;;27.40;62.30;;;;;;5108546;28;20484;-78
2023/07/12 10:32:46;;;;;;;24.80;22.92;;;27.80;61.10;;;;;;5105690;28;20043;-79
2023/07/12 10:35:44;;;;;;;21.75;20.33;;;27.50;60.60;;;;;;5088560;28;20062;-79
2023/07/12 10:38:13;;;;;;;23.42;21.73;;;27.80;59.50;;;;;;5108562;28;20195;-79
2023/07/12 10:41:27;;;;;;;20.05;18.48;;;28.40;60.00;;;;;;5107846;28;20032;-78
2023/07/12 10:44:08;;;;;;;22.10;20.40;;;28.50;57.70;;;;;;5092855;28;20078;-78
2023/07/12 10:46:37;;;;;;;21.45;19.92;;;28.20;55.80;;;;;;5089607;28;20886;-78
2023/07/12 10:49:12;;;;;;;21.52;20.02;;;27.90;60.10;;;;;;5089193;28;20042;-79
2023/07/12 10:51:40;;;;;;;20.88;19.15;;;28.00;59.10;;;;;;5107282;28;20119;-78
2023/07/12 10:54:29;;;;;;;22.17;20.63;;;28.40;57.10;;;;;;5089888;28;20036;-78
2023/07/12 10:57:02;;;;;;;21.25;19.75;;;28.00;54.80;;;;;;5108577;28;20055;-78
2023/07/12 10:59:33;;;;;;;20.13;18.70;;;28.50;54.60;;;;;;5107314;28;20028;-76
2023/07/12 11:02:04;;;;;;;21.85;19.92;;;28.80;55.70;;;;;;5107174;28;20507;-75
2023/07/12 11:04:29;;;;;;;21.23;19.77;;;29.00;53.50;;;;;;5103410;28;20046;-75
2023/07/12 11:07:11;;;;;;;22.75;21.15;;;28.80;52.30;;;;;;5103946;28;20020;-75
2023/07/12 11:10:05;;;;;;;21.83;20.50;;;29.10;50.90;;;;;;5097826;28;20085;-75
2023/07/12 11:12:53;;;;;;;28.65;26.95;;;29.80;48.00;;;;;;5104146;27;20462;-75
2023/07/12 11:15:25;;;;;;;41.25;39.03;;;30.00;45.90;;;;;;5105486;28;20043;-75
2023/07/12 11:18:00;;;;;;;59.53;56.63;;;30.20;45.70;;;;;;5108466;28;20104;-75
2023/07/12 11:20:30;;;;;;;67.03;64.25;;;31.20;44.50;;;;;;5103210;27;20043;-76
2023/07/12 11:22:59;;;;;;;81.88;78.57;;;30.50;44.20;;;;;;5104837;28;20491;-73
2023/07/12 11:25:44;;;;;;;70.10;67.03;;;29.70;45.90;;;;;;5104810;28;20035;-72
2023/07/12 11:28:48;;;;;;;55.22;52.78;;;29.10;45.80;;;;;;5104165;28;20043;-72
2023/07/12 11:31:29;;;;;;;36.35;34.38;;;28.50;48.70;;;;;;5028031;28;20045;-72
2023/07/12 11:34:17;;;;;;;32.90;31.05;;;28.70;51.10;;;;;;5095711;28;20040;-71
2023/07/12 11:36:49;;;;;;;32.72;30.70;;;28.50;50.70;;;;;;5105684;28;20040;-72
2023/07/12 11:39:20;;;;;;;31.60;29.77;;;29.50;48.80;;;;;;5101106;28;20034;-72
2023/07/12 11:42:01;;;;;;;50.70;48.40;;;29.60;46.50;;;;;;5086001;28;20024;-72
2023/07/12 11:44:27;;;;;;;61.90;59.15;;;28.80;48.00;;;;;;5106473;28;20039;-73
2023/07/12 11:46:53;;;;;;;64.22;61.03;;;28.80;48.20;;;;;;5099641;28;20024;-73
2023/07/12 11:49:21;;;;;;;39.92;37.70;;;28.90;48.00;;;;;;5102919;28;20506;-73
2023/07/12 11:51:52;;;;;;;27.90;26.27;;;28.40;50.70;;;;;;5100420;28;20024;-73
2023/07/12 11:54:43;;;;;;;30.73;28.70;;;27.80;49.60;;;;;;5104016;28;20023;-73
2023/07/12 11:57:12;;;;;;;32.28;30.48;;;27.40;51.80;;;;;;5093812;28;20039;-72
2023/07/12 11:59:41;;;;;;;56.78;52.90;;;27.10;52.70;;;;;;5107305;28;20031;-72
2023/07/12 12:02:18;;;;;;;19.73;18.40;;;26.60;55.00;;;;;;5103491;28;20057;-72
2023/07/12 12:04:48;;;;;;;19.23;17.83;;;26.10;59.60;;;;;;5107566;28;20475;-72
2023/07/12 12:07:35;;;;;;;17.95;16.70;;;25.80;65.20;;;;;;5107074;28;20031;-72
2023/07/12 12:10:01;;;;;;;21.73;19.95;;;25.50;62.80;;;;;;5106997;28;20028;-73
2023/07/12 12:12:31;;;;;;;19.63;18.25;;;25.20;66.40;;;;;;5110494;28;20024;-72
2023/07/12 12:14:57;;;;;;;25.63;23.35;;;24.70;71.30;;;;;;5109188;28;20085;-72
2023/07/12 12:17:25;;;;;;;24.65;22.75;;;24.30;76.60;;;;;;5109433;27;20042;-72
2023/07/12 12:20:11;;;;;;;27.48;25.80;;;23.30;88.20;;;;;;5091407;28;20541;-72
2023/07/12 12:22:41;;;;;;;36.28;26.00;;;22.90;90.00;;;;;;5109985;28;20031;-71
2023/07/12 12:25:15;;;;;;;31.50;29.50;;;22.80;91.30;;;;;;5107790;28;20046;-72
2023/07/12 12:27:43;;;;;;;29.90;27.52;;;23.20;90.90;;;;;;5107724;28;20301;-72
2023/07/12 12:30:15;;;;;;;41.50;39.10;;;23.40;87.90;;;;;;5107410;28;20042;-72
2023/07/12 12:32:55;;;;;;;35.90;33.80;;;23.70;92.40;;;;;;5106910;27;20385;-72
2023/07/12 12:35:21;;;;;;;38.70;36.17;;;24.20;91.80;;;;;;5103401;28;20058;-72